TW-0020 weather

Shuang Ho Hospital Heliport
New Taipei City, Taipei County, Taiwan

Public forecast

Using degrees Celsius for public forecast. Weather courtesy of forecast.io.

METAR (pilot weather report)

Closest report is Taipei Songshan Airport, 5.6 nm (10.4 km) NE. Retrieved 2019/07/21 18:00 UTC (24 minutes ago):

RCSS 211800Z 34004KT 9999 FEW015 SCT080 BKN150 27/26 Q1006 NOSIG RMK A2973

TAF (pilot weather forecast)

Closest forecast is Taipei Songshan Airport, 5.6 nm (10.4 km) NE. Retrieved 2019/07/21 18:00 UTC (24 minutes ago):

TAF RCSS 211700Z 2118/2218 31005KT 9999 FEW015 BKN080 TEMPO 2118/2124 07005KT FEW012 BKN032 BECMG 2202/2204 09005KT TEMPO 2204/2208 12010G20KT 3200 TSRA FEW006 BKN012 FEW015CB BKN040